createdAt,value
2018-09-19T00:04:22.845Z,99141.63
2018-09-19T00:09:16.081Z,99143.95
2018-09-19T00:14:09.924Z,99142.39
2018-09-19T00:19:03.143Z,99140.45
2018-09-19T00:23:56.216Z,99144.06
2018-09-19T00:28:49.280Z,99137.75
2018-09-19T00:33:42.368Z,99131.41
2018-09-19T00:38:35.659Z,99132.14
2018-09-19T00:43:29.664Z,99132.04
2018-09-19T00:48:22.733Z,99131.29
2018-09-19T00:53:15.937Z,99128.05
2018-09-19T00:58:09.039Z,99132.19
2018-09-19T01:03:02.168Z,99122.61
2018-09-19T01:07:55.367Z,99123.23
2018-09-19T01:12:48.450Z,99129.03
2018-09-19T01:17:41.554Z,99118.70
2018-09-19T01:22:34.585Z,99114.64
2018-09-19T01:27:27.722Z,99123.92
2018-09-19T01:32:20.757Z,99119.28
2018-09-19T01:37:13.808Z,99123.87
2018-09-19T01:42:07.136Z,99131.56
2018-09-19T01:47:00.429Z,99126.61
2018-09-19T01:51:54.471Z,99114.96
2018-09-19T01:56:47.727Z,99113.33
2018-09-19T02:01:40.874Z,99104.80
2018-09-19T02:06:33.994Z,99111.71
2018-09-19T02:11:27.182Z,99113.33
2018-09-19T02:16:22.612Z,99110.97
2018-09-19T02:21:15.809Z,99115.20
2018-09-19T02:26:08.833Z,99110.77
2018-09-19T02:31:01.867Z,99120.25
2018-09-19T02:35:55.078Z,99119.08
2018-09-19T02:40:48.497Z,99122.48
2018-09-19T02:45:41.567Z,99116.81
2018-09-19T02:50:34.596Z,99119.04
2018-09-19T02:55:27.734Z,99115.66
2018-09-19T03:00:21.008Z,99122.10
2018-09-19T03:05:14.262Z,99117.75
2018-09-19T03:10:07.395Z,99118.72
2018-09-19T03:15:00.543Z,99120.69
2018-09-19T03:19:53.705Z,99115.36
2018-09-19T03:24:46.880Z,99109.68
2018-09-19T03:29:39.972Z,99110.64
2018-09-19T03:34:33.146Z,99107.13
2018-09-19T03:39:26.302Z,99110.38
2018-09-19T03:44:19.219Z,99111.22
2018-09-19T03:49:12.386Z,99113.74
2018-09-19T03:54:05.618Z,99113.94
2018-09-19T03:58:59.435Z,99121.64
2018-09-19T04:03:53.518Z,99123.94
2018-09-19T04:08:47.354Z,99121.07
2018-09-19T04:13:41.180Z,99124.92
2018-09-19T04:18:34.956Z,99130.83
2018-09-19T04:23:29.506Z,99128.48
2018-09-19T04:28:24.480Z,99137.92
2018-09-19T04:33:17.618Z,99153.02
2018-09-19T04:38:12.702Z,99154.17
2018-09-19T04:43:08.006Z,99166.20
2018-09-19T04:48:06.276Z,99164.56
2018-09-19T04:53:00.724Z,99164.36
2018-09-19T04:57:59.797Z,99159.30
2018-09-19T05:02:57.401Z,99160.30
2018-09-19T05:07:51.108Z,99155.95
2018-09-19T05:12:45.599Z,99163.05
2018-09-19T05:17:39.995Z,99172.63
2018-09-19T05:22:38.310Z,99173.41
2018-09-19T05:27:33.932Z,99171.97
2018-09-19T05:32:30.203Z,99181.06
2018-09-19T05:37:24.301Z,99178.36
2018-09-19T05:42:17.852Z,99181.14
2018-09-19T05:47:11.595Z,99183.63
2018-09-19T05:52:08.651Z,99180.69
2018-09-19T05:57:02.975Z,99182.33
2018-09-19T06:01:57.487Z,99197.84
2018-09-19T06:06:53.442Z,99197.29
2018-09-19T06:11:47.767Z,99192.20
2018-09-19T06:16:41.293Z,99197.11
2018-09-19T06:21:35.860Z,99190.70
2018-09-19T06:26:33.346Z,99196.74
2018-09-19T06:31:29.003Z,99194.50
2018-09-19T06:36:22.816Z,99196.14
2018-09-19T06:41:16.854Z,99197.20
2018-09-19T06:46:14.963Z,99195.77
2018-09-19T06:51:09.614Z,99198.41
2018-09-19T06:56:03.754Z,99205.03
2018-09-19T07:00:56.884Z,99204.47
2018-09-19T07:05:51.617Z,99204.25
2018-09-19T07:10:46.187Z,99206.50
2018-09-19T07:15:39.839Z,99205.39
2018-09-19T07:20:33.148Z,99194.45
2018-09-19T07:25:28.915Z,99202.64
2018-09-19T07:30:24.824Z,99202.77
2018-09-19T07:35:22.421Z,99196.34
2018-09-19T07:40:15.761Z,99190.96
2018-09-19T07:45:12.033Z,99203.56
2018-09-19T07:50:05.639Z,99200.20
2018-09-19T07:54:59.097Z,99193.94
2018-09-19T07:59:56.365Z,99190.28
2018-09-19T08:04:50.298Z,99187.85
2018-09-19T08:09:44.296Z,99183.91
2018-09-19T08:14:37.907Z,99186.32
2018-09-19T08:19:32.740Z,99191.88
2018-09-19T08:24:26.548Z,99188.54
2018-09-19T08:29:19.759Z,99178.91
2018-09-19T08:34:13.720Z,99192.66
2018-09-19T08:39:08.705Z,99185.34
2018-09-19T08:44:02.296Z,99177.19
2018-09-19T08:48:55.424Z,99183.08
2018-09-19T08:53:53.514Z,99172.93
2018-09-19T08:58:47.295Z,99169.67
2018-09-19T09:03:40.831Z,99158.94
2018-09-19T09:08:35.453Z,99151.03
2018-09-19T09:13:29.639Z,99147.09
2018-09-19T09:18:23.877Z,99154.47
2018-09-19T09:23:18.285Z,99152.72
2018-09-19T09:28:18.833Z,99135.56
2018-09-19T09:33:12.218Z,99145.38
2018-09-19T09:38:07.412Z,99141.38
2018-09-19T09:43:00.585Z,99134.23
2018-09-19T09:47:55.006Z,99132.39
2018-09-19T09:52:49.595Z,99137.94
2018-09-19T09:57:42.818Z,99132.20
2018-09-19T10:02:40.110Z,99125.33
2018-09-19T10:07:35.518Z,99119.13
2018-09-19T10:12:29.270Z,99113.69
2018-09-19T10:17:23.250Z,99115.58
2018-09-19T10:22:16.771Z,99099.77
2018-09-19T10:27:10.979Z,99100.09
2018-09-19T10:32:04.203Z,99094.66
2018-09-19T10:36:57.294Z,99092.88
2018-09-19T10:41:50.692Z,99090.53
2018-09-19T10:46:44.531Z,99077.53
2018-09-19T10:51:40.428Z,99074.23
2018-09-19T10:56:34.307Z,99066.42
2018-09-19T11:01:27.645Z,99063.72
2018-09-19T11:06:20.994Z,99053.38
2018-09-19T11:11:14.187Z,99053.24
2018-09-19T11:16:14.956Z,99042.49
2018-09-19T11:21:09.340Z,99032.17
2018-09-19T11:26:06.602Z,99027.45
2018-09-19T11:31:01.592Z,99021.95
2018-09-19T11:36:00.714Z,99023.36
2018-09-19T11:40:55.947Z,99024.30
2018-09-19T11:45:54.060Z,99013.60
2018-09-19T11:50:48.351Z,99014.44
2018-09-19T11:55:45.267Z,99003.58
2018-09-19T12:00:42.377Z,99008.77
2018-09-19T12:05:36.739Z,99008.23
2018-09-19T12:10:31.099Z,99002.36
2018-09-19T12:15:24.968Z,98996.71
2018-09-19T12:20:19.680Z,98993.22
2018-09-19T12:25:17.688Z,98981.97
2018-09-19T12:30:13.988Z,98989.37
2018-09-19T12:35:07.070Z,98988.95
2018-09-19T12:40:00.454Z,98987.73
2018-09-19T12:44:54.101Z,98982.36
2018-09-19T12:49:48.594Z,98985.14
2018-09-19T12:54:41.785Z,98982.88
2018-09-19T12:59:35.327Z,98985.98
2018-09-19T13:04:31.556Z,98976.66
2018-09-19T13:09:24.694Z,98973.78
2018-09-19T13:14:18.934Z,98978.55
2018-09-19T13:19:18.099Z,98978.38
2018-09-19T13:24:11.939Z,98966.83
2018-09-19T13:29:05.724Z,98957.77
2018-09-19T13:33:59.589Z,98954.31
2018-09-19T13:38:52.838Z,98956.95
2018-09-19T13:43:46.732Z,98952.50
2018-09-19T13:48:42.645Z,98953.41
2018-09-19T13:53:36.431Z,98945.31
2018-09-19T13:58:30.496Z,98945.31
2018-09-19T14:03:24.541Z,98942.73
2018-09-19T14:08:21.723Z,98935.17
2018-09-19T14:13:16.336Z,98936.97
2018-09-19T14:18:17.404Z,98930.23
2018-09-19T14:23:13.655Z,98928.04
2018-09-19T14:28:07.500Z,98934.37
2018-09-19T14:33:05.678Z,98933.23
2018-09-19T14:38:06.278Z,98935.81
2018-09-19T14:43:02.123Z,98937.50
2018-09-19T14:48:00.256Z,98934.22
2018-09-19T14:52:55.217Z,98928.66
2018-09-19T14:57:49.064Z,98928.34
2018-09-19T15:02:42.375Z,98927.94
2018-09-19T15:07:36.416Z,98929.14
2018-09-19T15:12:30.531Z,98931.28
2018-09-19T15:17:29.516Z,98930.14
2018-09-19T15:22:27.041Z,98938.58
2018-09-19T15:32:24.236Z,98947.76
2018-09-19T15:37:22.236Z,98946.68
2018-09-19T15:42:19.684Z,98947.17
2018-09-19T15:47:13.808Z,98943.30
2018-09-19T15:52:08.793Z,98948.88
2018-09-19T15:57:04.308Z,98946.10
2018-09-19T16:02:02.661Z,98952.86
2018-09-19T16:06:57.566Z,98950.03
2018-09-19T16:11:55.992Z,98959.13
2018-09-19T16:16:49.359Z,98967.27
2018-09-19T16:21:48.624Z,98959.02
2018-09-19T16:26:41.965Z,98966.26
2018-09-19T16:31:36.044Z,98969.80
2018-09-19T16:36:29.966Z,98972.42
2018-09-19T16:41:23.336Z,98972.37
2018-09-19T16:46:18.107Z,98988.03
2018-09-19T16:51:13.532Z,98997.67
2018-09-19T16:56:06.739Z,99005.70
2018-09-19T17:01:00.339Z,99008.44
2018-09-19T17:05:54.775Z,99016.30
2018-09-19T17:10:47.938Z,99021.75
2018-09-19T17:15:43.143Z,99029.77
2018-09-19T17:20:36.779Z,99029.48
2018-09-19T17:25:30.414Z,99035.41
2018-09-19T17:30:23.457Z,99033.52
2018-09-19T17:35:18.766Z,99037.91
2018-09-19T17:40:12.549Z,99054.50
2018-09-19T17:45:05.707Z,99057.45
2018-09-19T17:49:58.771Z,99065.04
2018-09-19T17:54:52.943Z,99069.66
2018-09-19T17:59:46.036Z,99071.84
2018-09-19T18:04:40.039Z,99076.45
2018-09-19T18:09:33.294Z,99078.09
2018-09-19T18:14:26.362Z,99082.69
2018-09-19T18:19:19.327Z,99085.75
2018-09-19T18:24:12.639Z,99088.32
2018-09-19T18:29:06.242Z,99083.95
2018-09-19T18:33:59.566Z,99086.48
2018-09-19T18:38:53.237Z,99085.55
2018-09-19T18:43:46.565Z,99085.29
2018-09-19T18:48:39.854Z,99087.02
2018-09-19T18:53:33.064Z,99083.30
2018-09-19T18:58:33.644Z,99093.09
2018-09-19T19:03:27.095Z,99092.84
2018-09-19T19:08:23.849Z,99096.13
2018-09-19T19:13:17.130Z,99095.89
2018-09-19T19:18:10.174Z,99089.88
2018-09-19T19:23:03.768Z,99086.56
2018-09-19T19:27:56.847Z,99085.00
2018-09-19T19:32:49.947Z,99076.36
2018-09-19T19:37:43.029Z,99083.17
2018-09-19T19:42:36.525Z,99069.87
2018-09-19T19:47:29.582Z,99074.41
2018-09-19T19:52:22.656Z,99066.67
2018-09-19T19:57:15.874Z,99072.97
2018-09-19T20:02:09.183Z,99069.06
2018-09-19T20:07:04.779Z,99070.95
2018-09-19T20:11:57.932Z,99067.20
2018-09-19T20:16:50.967Z,99068.69
2018-09-19T20:21:44.073Z,99067.57
2018-09-19T20:26:37.078Z,99079.40
2018-09-19T20:31:30.130Z,99078.52
2018-09-19T20:36:34.547Z,99082.36
2018-09-19T20:41:30.905Z,99081.71
2018-09-19T20:46:30.336Z,99076.10
2018-09-19T21:01:36.659Z,99071.97
2018-09-19T21:11:38.322Z,99070.02
2018-09-19T21:21:52.059Z,99068.67
2018-09-19T21:31:50.750Z,99074.06
2018-09-19T21:36:43.780Z,99063.85
2018-09-19T21:41:37.182Z,99069.48
2018-09-19T21:46:30.366Z,99068.56
2018-09-19T21:51:23.982Z,99064.61
2018-09-19T21:56:17.176Z,99066.20
2018-09-19T22:01:11.042Z,99065.30
2018-09-19T22:06:04.165Z,99066.81
2018-09-19T22:10:57.392Z,99071.09
2018-09-19T22:15:50.368Z,99061.00
2018-09-19T22:20:43.680Z,99070.13
2018-09-19T22:25:36.618Z,99072.55
2018-09-19T22:30:29.667Z,99073.84
2018-09-19T22:35:22.675Z,99074.16
2018-09-19T22:40:15.691Z,99076.21
2018-09-19T22:45:08.735Z,99077.81
2018-09-19T22:50:01.857Z,99074.20
2018-09-19T22:54:54.895Z,99070.35
2018-09-19T22:59:48.084Z,99071.78
2018-09-19T23:04:41.191Z,99069.15
2018-09-19T23:09:34.394Z,99071.00
2018-09-19T23:14:27.459Z,99068.51
2018-09-19T23:19:20.495Z,99059.91
2018-09-19T23:24:13.558Z,99056.28
2018-09-19T23:29:06.944Z,99052.20
2018-09-19T23:34:00.096Z,99057.05
2018-09-19T23:38:53.202Z,99044.19
2018-09-19T23:43:46.259Z,99034.44
2018-09-19T23:48:39.411Z,99037.88
2018-09-19T23:53:32.474Z,99028.59
2018-09-19T23:58:25.499Z,99036.34
